Terminal Aerodrome Forecast
Issued by NWS

Home | Current Version | Previous Version | Text Only | Print | Product List | Glossary Off
Versions: 1 2 3 4 5 6 7 8 9 10 11 12 13 14 15 16 17 18 19 20 21 22 23 24 25

000
FTUS43 KLOT 191736
TAFDPA
TAF
KDPA 191736Z 1918/2018 15006KT 3/4SM -SHRADZ BR OVC004
      TEMPO 1918/1920 1/4SM DZ FG OVC002
     FM192100 19013G20KT 1 1/2SM -SHRA BR OVC005 WS015/22050KT
     FM200600 21012KT 1 1/2SM SHRA BR VCTS SCT003 OVC007CB
      TEMPO 2008/2012 1SM TSRA OVC005CB
     FM201200 21012KT 1 1/2SM SHRA BR SCT003 OVC007=

USA.gov is the U.S. government's official web portal to all federal, state and local government web resources and services.